Avalon, California
Current Conditions -  °F | °C
As of 6:51 AM on Sunday 23 Nov 2014 (Local Time) from KAVX Reporting Station
Clear Clear  
Wind Chill: 56°   Ceiling: Unl
Heat Index: 56°   Visibility: 10mi
Dew Point: 49°   Wind: 14mph
Humidity: 77%   Direction: 360°N
Pressure: 30.11"   Gusts: NA
Location:  33.34°N, 118.33°W
Report Text: KAVX 231451Z AUTO 36012KT 10SM CLR 13/09 A3011 RMK AO2 SLP189 T01330094 53016
Loading
Personal Weather Stations






























Interactive Weather Map New forecast layout! Learn more

10-Day Weather Forecast

Advertisements
Track Severe Weather on mobile